createdAt,value
2018-11-29T00:06:22.000Z,32.023
2018-11-29T00:16:22.000Z,32.108
2018-11-29T00:26:22.000Z,32.118
2018-11-29T00:36:22.000Z,32.289
2018-11-29T00:46:22.000Z,32.299
2018-11-29T00:56:22.000Z,32.407
2018-11-29T01:06:22.000Z,32.502
2018-11-29T01:16:22.000Z,32.491
2018-11-29T01:26:22.000Z,32.543
2018-11-29T01:36:22.000Z,32.737
2018-11-29T01:46:22.000Z,32.79
2018-11-29T01:56:22.000Z,32.952
2018-11-29T02:06:22.000Z,32.885
2018-11-29T02:16:22.000Z,32.939
2018-11-29T02:26:22.000Z,33.046
2018-11-29T02:36:22.000Z,33.153
2018-11-29T02:46:22.000Z,33.186
2018-11-29T02:56:22.000Z,33.271
2018-11-29T03:06:23.000Z,33.184
2018-11-29T03:16:23.000Z,33.302
2018-11-29T03:26:23.000Z,33.345
2018-11-29T03:36:23.000Z,33.592
2018-11-29T03:46:23.000Z,33.548
2018-11-29T03:56:23.000Z,33.539
2018-11-29T04:06:23.000Z,33.539
2018-11-29T04:16:23.000Z,33.722
2018-11-29T04:26:23.000Z,33.818
2018-11-29T04:36:23.000Z,33.98
2018-11-29T04:46:23.000Z,34.055
2018-11-29T04:56:23.000Z,34.011
2018-11-29T05:06:23.000Z,34.076
2018-11-29T05:16:23.000Z,33.958
2018-11-29T05:26:23.000Z,33.936
2018-11-29T05:36:23.000Z,33.839
2018-11-29T05:46:23.000Z,33.872
2018-11-29T05:56:23.000Z,33.699
2018-11-29T06:06:23.000Z,33.624
2018-11-29T06:16:23.000Z,33.295
2018-11-29T06:26:23.000Z,33.401
2018-11-29T06:36:23.000Z,33.216
2018-11-29T06:46:23.000Z,33.11
2018-11-29T06:56:23.000Z,33.133
2018-11-29T07:06:23.000Z,33.339
2018-11-29T07:16:23.000Z,33.244
2018-11-29T07:26:23.000Z,33.019
2018-11-29T07:36:23.000Z,33.008
2018-11-29T07:46:23.000Z,32.705
2018-11-29T07:56:23.000Z,36.214
2018-11-29T08:06:23.000Z,35.069
2018-11-29T08:16:23.000Z,35.073
2018-11-29T08:26:23.000Z,34.638
2018-11-29T08:36:23.000Z,34.876
2018-11-29T08:46:24.000Z,34.268
2018-11-29T08:56:23.000Z,35.165
2018-11-29T09:06:23.000Z,34.256
2018-11-29T09:16:23.000Z,34.213
2018-11-29T09:26:23.000Z,34.094
2018-11-29T09:36:23.000Z,33.987
2018-11-29T09:46:23.000Z,34.248
2018-11-29T09:56:23.000Z,34.89
2018-11-29T10:06:23.000Z,34.436
2018-11-29T10:16:23.000Z,34.124
2018-11-29T10:26:23.000Z,35.334
2018-11-29T10:36:23.000Z,35.097
2018-11-29T10:46:23.000Z,34.763
2018-11-29T10:56:23.000Z,35.065
2018-11-29T11:06:23.000Z,35.198
2018-11-29T11:16:23.000Z,35.2
2018-11-29T11:26:23.000Z,34.853
2018-11-29T11:36:24.000Z,34.961
2018-11-29T11:46:24.000Z,34.852
2018-11-29T11:56:24.000Z,34.732
2018-11-29T12:06:24.000Z,34.905
2018-11-29T12:16:24.000Z,34.905
2018-11-29T12:26:24.000Z,34.709
2018-11-29T12:36:24.000Z,34.709
2018-11-29T12:46:24.000Z,34.579
2018-11-29T12:56:24.000Z,34.676
2018-11-29T13:06:24.000Z,34.599
2018-11-29T13:16:24.000Z,34.545
2018-11-29T13:26:24.000Z,34.578
2018-11-29T13:36:24.000Z,34.446
2018-11-29T13:46:24.000Z,34.252
2018-11-29T13:56:24.000Z,34.317
2018-11-29T14:06:24.000Z,34.207
2018-11-29T14:16:24.000Z,33.613
2018-11-29T14:26:24.000Z,33.537
2018-11-29T14:36:24.000Z,33.179
2018-11-29T14:46:24.000Z,33.157
2018-11-29T14:56:24.000Z,33.059
2018-11-29T15:06:24.000Z,33.005
2018-11-29T15:16:25.000Z,32.733
2018-11-29T15:26:24.000Z,32.787
2018-11-29T15:36:24.000Z,32.702
2018-11-29T15:46:24.000Z,32.711
2018-11-29T15:56:24.000Z,32.733
2018-11-29T16:06:24.000Z,32.765
2018-11-29T16:16:24.000Z,32.711
2018-11-29T16:26:24.000Z,32.722
2018-11-29T16:36:24.000Z,32.745
2018-11-29T16:46:24.000Z,32.799
2018-11-29T16:56:24.000Z,32.744
2018-11-29T17:06:24.000Z,32.722
2018-11-29T17:16:24.000Z,32.82
2018-11-29T17:26:24.000Z,32.852
2018-11-29T17:36:24.000Z,32.84
2018-11-29T17:46:24.000Z,32.884
2018-11-29T17:56:24.000Z,32.916
2018-11-29T18:06:24.000Z,32.949
2018-11-29T18:16:24.000Z,32.883
2018-11-29T18:26:24.000Z,32.873
2018-11-29T18:36:25.000Z,32.883
2018-11-29T18:46:24.000Z,32.796
2018-11-29T18:56:24.000Z,32.948
2018-11-29T19:06:24.000Z,33.002
2018-11-29T19:16:25.000Z,32.916
2018-11-29T19:26:24.000Z,32.937
2018-11-29T19:36:25.000Z,32.969
2018-11-29T19:46:25.000Z,33.001
2018-11-29T19:56:25.000Z,32.969
2018-11-29T20:06:27.000Z,33.034
2018-11-29T20:16:25.000Z,33
2018-11-29T20:26:26.000Z,33.12
2018-11-29T20:36:25.000Z,34.971
2018-11-29T20:46:25.000Z,34.931
2018-11-29T20:56:25.000Z,35.031
2018-11-29T21:06:25.000Z,35.207
2018-11-29T21:16:25.000Z,35.617
2018-11-29T21:26:25.000Z,35.574
2018-11-29T21:36:25.000Z,35.564
2018-11-29T21:46:25.000Z,35.884
2018-11-29T21:56:25.000Z,36.144
2018-11-29T22:06:25.000Z,35.929
2018-11-29T22:16:25.000Z,36.935
2018-11-29T22:26:25.000Z,36.296
2018-11-29T22:36:25.000Z,36.218
2018-11-29T22:46:25.000Z,36.27
2018-11-29T22:56:25.000Z,36.386
2018-11-29T23:06:25.000Z,36.34
2018-11-29T23:16:25.000Z,36.445
2018-11-29T23:26:25.000Z,36.365
2018-11-29T23:36:26.000Z,36.438
2018-11-29T23:46:25.000Z,36.577
2018-11-29T23:56:25.000Z,36.574
